Greater Rochester International Airport


Codes: KROC/ROC
Name: Greater Rochester International Airport
City: Rochester
Country: United States
Elevation: 559 ft.
Wikipedia:

Photos at Greater Rochester International Airport


   Photos courtesy of SpottingLog. You can add your own sightings and photos by signing up for a free trial today.



No photos found.

Weather at Greater Rochester International Airport


Time (UTC)DescriptionTempratureWindCloud coverageVisibilityPressureHumidity
13-Jun-2024 03:00Few Clouds17°C7 mph, S20%10000m1015hPa76%
13-Jun-2024 06:00Scattered Clouds16°C9 mph, S31%10000m1014hPa79%
13-Jun-2024 09:00Broken Clouds16°C11 mph, S66%10000m1014hPa74%
13-Jun-2024 12:00Overcast Clouds18°C11 mph, SW93%10000m1012hPa76%
13-Jun-2024 15:00Overcast Clouds24°C13 mph, SW100%10000m1012hPa62%
13-Jun-2024 18:00Overcast Clouds27°C13 mph, SW98%10000m1011hPa56%
13-Jun-2024 21:00Broken Clouds24°C11 mph, SW84%10000m1010hPa68%
14-Jun-2024 00:00Broken Clouds23°C13 mph, SW81%10000m1010hPa68%
14-Jun-2024 03:00Light Rain21°C11 mph, SW11%10000m1010hPa79%
14-Jun-2024 06:00Light Rain20°C11 mph, SW55%10000m1010hPa89%
14-Jun-2024 09:00Light Rain18°C9 mph, W79%10000m1010hPa94%
14-Jun-2024 12:00Overcast Clouds19°C9 mph, NW88%10000m1012hPa87%
14-Jun-2024 15:00Overcast Clouds19°C7 mph, N100%10000m1012hPa68%
14-Jun-2024 18:00Light Rain19°C4 mph, N100%10000m1012hPa69%
14-Jun-2024 21:00Scattered Clouds21°C7 mph, NW35%10000m1013hPa59%
15-Jun-2024 00:00Few Clouds18°C7 mph, NW18%10000m1013hPa77%
15-Jun-2024 03:00Clear Sky14°C7 mph, NW3%10000m1015hPa86%
15-Jun-2024 06:00Clear Sky13°C7 mph, W1%10000m1016hPa88%
15-Jun-2024 09:00Clear Sky11°C7 mph, W2%10000m1017hPa91%
15-Jun-2024 12:00Clear Sky15°C4 mph, N1%10000m1019hPa78%
15-Jun-2024 15:00Clear Sky17°C9 mph, NE2%10000m1021hPa63%
15-Jun-2024 18:00Clear Sky18°C9 mph, N0%10000m1021hPa58%
15-Jun-2024 21:00Clear Sky18°C7 mph, NE0%10000m1020hPa55%
16-Jun-2024 00:00Few Clouds15°C4 mph, E11%10000m1021hPa68%
16-Jun-2024 03:00Overcast Clouds13°C4 mph, SE100%10000m1022hPa73%
16-Jun-2024 06:00Overcast Clouds12°C4 mph, SE100%10000m1022hPa70%
16-Jun-2024 09:00Overcast Clouds12°C4 mph, SE100%10000m1022hPa62%
16-Jun-2024 12:00Overcast Clouds14°C4 mph, SE100%10000m1023hPa65%
16-Jun-2024 15:00Overcast Clouds19°C7 mph, SE100%10000m1021hPa53%
16-Jun-2024 18:00Overcast Clouds21°C2 mph, E100%10000m1019hPa61%
16-Jun-2024 21:00Overcast Clouds22°C4 mph, NE100%10000m1018hPa70%
17-Jun-2024 00:00Overcast Clouds20°C7 mph, SE100%10000m1017hPa76%
17-Jun-2024 03:00Overcast Clouds19°C7 mph, SE99%10000m1016hPa74%
17-Jun-2024 06:00Overcast Clouds22°C11 mph, S99%10000m1014hPa64%
17-Jun-2024 09:00Overcast Clouds20°C9 mph, SW99%10000m1015hPa71%
17-Jun-2024 12:00Moderate Rain18°C11 mph, S100%3126m1014hPa97%
17-Jun-2024 15:00Moderate Rain19°C4 mph, SW100%10000m1014hPa96%
17-Jun-2024 18:00Light Rain24°C9 mph, W99%10000m1014hPa86%
17-Jun-2024 21:00Light Rain26°C4 mph, W92%10000m1014hPa78%
18-Jun-2024 00:00Overcast Clouds24°C4 mph, SW90%10000m1014hPa90%